aip.org alexa rank chart, aip.org alexa rank daily changes

aip.org alexa rank chart, aip.org alexa rank daily changes

aip.org
Actual rank:
36 351

RANK HISTORY

Date Rank Diff
2018/10/17 36 351 -28 037
2018/10/16 64 388 +32 236
2018/10/15 32 152 -45 308
2018/10/14 77 460 -5 250
2018/10/13 82 710 +3 011
2018/10/12 79 699 +22 469
2018/10/11 57 230 -62 783
2018/10/10 120 013 -20 532
2018/10/09 140 545 +75 919
2018/10/08 64 626 -31 068
2018/10/07 95 694 +28 378
2018/10/06 67 316 -32 312
2018/10/05 99 628 -24 843
2018/10/04 124 471 +24 075
2018/10/03 100 396 +66 328
2018/10/02 34 068 +1 513
2018/10/01 32 555 -18 399
2018/09/30 50 954 -44 486
2018/09/29 95 440 -15 504
2018/09/28 110 944 +60 912
2018/09/27 50 032 -48 416
2018/09/26 98 448 +3 819
2018/09/25 94 629 -54 461
2018/09/24 149 090 +54 925
2018/09/23 94 165 +18 115
2018/09/22 76 050 +43 292
2018/09/21 32 758 -68 571
2018/09/20 101 329 +64 284
2018/09/19 37 045 +15 136
2018/09/18 21 909 -116 413
2018/09/17 138 322 +101 242
2018/09/16 37 080 -34 214
2018/09/15 71 294 +28 390
2018/09/14 42 904 -84 064
2018/09/13 126 968 +10 338
2018/09/12 116 630 +42 012
2018/09/11 74 618 -134 757
2018/09/10 209 375 +125 925
2018/09/09 83 450 -4 504
2018/09/08 87 954 +17 302
2018/09/07 70 652 +11 966
2018/09/06 58 686 -12 179
2018/09/05 70 865 -87 498
2018/09/04 158 363 +100 182
2018/09/03 58 181 -190 598
2018/09/02 248 779 +117 689
2018/09/01 131 090 +77 003
2018/08/31 54 087 +2 788
2018/08/30 51 299 -31 952
2018/08/29 83 251 +13 594
2018/08/28 69 657 -94 479
2018/08/27 164 136 +119 943
2018/08/26 44 193 -112 290
2018/08/25 156 483 -96 465
2018/08/24 252 948 +168 231
2018/08/23 84 717 -83 273
2018/08/22 167 990 -41 410
2018/08/21 209 400 +23 767
2018/08/20 185 633 +98 084
2018/08/19 87 549 +12 717
2018/08/18 74 832

WIDGET FOR YOUR SITE

DOMAINS WITH THE NEAREST RANK

Domain Rank
harpercollins.com 36 346
greenvelope.com 36 347
urfanatik.com 36 348
ppncn.com 36 349
the-numbers.com 36 350
aip.org 36 351
gdzometr.by 36 352
nescafe-dolcegusto.com.br 36 353
bpm-power.com 36 354
nbclosangeles.com 36 355
pdfjoin.com 36 356

DOMAINS WITH THE NEAREST RANK BY TLD .org

Domain Rank
filmux.org 36 249
aspca.org 36 282
amnh.org 36 286
dakto.org 36 333
ecsdl.org 36 344
aip.org 36 351
isofts.org 36 409
fairview.org 36 471
aisinei.org 36 494
opportunitydesk.org 36 549
playentry.org 36 558